createdAt,value
2018-03-03T00:00:31.370Z,134.80
2018-03-03T00:02:24.311Z,132.70
2018-03-03T00:03:24.295Z,133.10
2018-03-03T00:05:17.216Z,136.40
2018-03-03T00:06:17.219Z,134.70
2018-03-03T00:08:10.163Z,138.70
2018-03-03T00:09:10.150Z,131.90
2018-03-03T00:11:03.064Z,136.60
2018-03-03T00:12:03.069Z,136.40
2018-03-03T00:13:56.008Z,138.00
2018-03-03T00:14:55.991Z,136.40
2018-03-03T00:16:48.899Z,140.30
2018-03-03T00:17:48.911Z,130.70
2018-03-03T00:19:41.853Z,142.50
2018-03-03T00:20:41.835Z,139.80
2018-03-03T00:22:34.781Z,140.40
2018-03-03T00:23:34.746Z,133.30
2018-03-03T00:25:27.664Z,138.10
2018-03-03T00:26:27.670Z,141.30
2018-03-03T00:28:20.606Z,145.40
2018-03-03T00:29:20.598Z,144.70
2018-03-03T00:31:13.509Z,145.00
2018-03-03T00:32:13.532Z,136.90
2018-03-03T00:34:06.447Z,146.40
2018-03-03T00:35:06.435Z,140.90
2018-03-03T00:36:59.351Z,145.50
2018-03-03T00:37:59.357Z,146.80
2018-03-03T00:39:52.309Z,142.40
2018-03-03T00:40:52.276Z,142.80
2018-03-03T00:42:45.688Z,141.70
2018-03-03T00:43:45.690Z,147.00
2018-03-03T00:45:38.632Z,145.20
2018-03-03T00:46:38.611Z,141.00
2018-03-03T00:48:31.551Z,149.50
2018-03-03T00:49:31.529Z,139.20
2018-03-03T00:51:24.444Z,145.40
2018-03-03T00:52:24.454Z,149.00
2018-03-03T00:54:17.380Z,144.00
2018-03-03T00:55:17.372Z,146.50
2018-03-03T00:57:10.784Z,144.70
2018-03-03T00:58:10.786Z,149.50
2018-03-03T01:00:03.739Z,144.80
2018-03-03T01:01:03.723Z,144.00
2018-03-03T01:02:56.633Z,142.60
2018-03-03T01:03:56.653Z,137.30
2018-03-03T01:05:49.575Z,148.50
2018-03-03T01:06:49.563Z,142.60
2018-03-03T01:08:42.492Z,147.70
2018-03-03T01:09:42.475Z,150.20
2018-03-03T01:11:35.387Z,145.30
2018-03-03T01:12:35.394Z,147.40
2018-03-03T01:14:28.335Z,143.80
2018-03-03T01:15:28.317Z,144.60
2018-03-03T01:17:21.241Z,140.40
2018-03-03T01:18:21.249Z,140.30
2018-03-03T01:20:14.175Z,145.20
2018-03-03T01:21:14.162Z,144.00
2018-03-03T01:23:07.071Z,140.10
2018-03-03T01:24:07.077Z,143.10
2018-03-03T01:26:00.021Z,152.70
2018-03-03T01:27:00.000Z,150.10
2018-03-03T01:28:52.949Z,142.50
2018-03-03T01:29:52.920Z,143.60
2018-03-03T01:31:45.852Z,143.30
2018-03-03T01:32:45.832Z,146.40
2018-03-03T01:34:38.762Z,150.60
2018-03-03T01:35:38.751Z,141.20
2018-03-03T01:37:31.660Z,147.50
2018-03-03T01:38:31.672Z,148.80
2018-03-03T01:40:24.602Z,145.10
2018-03-03T01:41:24.589Z,145.40
2018-03-03T01:43:17.509Z,144.90
2018-03-03T01:44:17.512Z,140.90
2018-03-03T01:46:10.446Z,143.80
2018-03-03T01:47:10.434Z,142.10
2018-03-03T01:49:03.367Z,143.20
2018-03-03T01:50:03.353Z,148.10
2018-03-03T01:51:57.787Z,146.70
2018-03-03T01:52:57.767Z,144.30
2018-03-03T01:54:50.704Z,153.20
2018-03-03T01:55:50.690Z,139.20
2018-03-03T01:57:43.596Z,142.00
2018-03-03T01:58:43.605Z,140.80
2018-03-03T02:00:36.538Z,143.30
2018-03-03T02:01:36.521Z,142.10
2018-03-03T02:03:29.440Z,141.80
2018-03-03T02:04:29.444Z,140.60
2018-03-03T02:06:22.381Z,143.70
2018-03-03T02:07:22.386Z,144.30
2018-03-03T02:09:15.302Z,147.00
2018-03-03T02:10:15.328Z,141.30
2018-03-03T02:12:08.215Z,139.20
2018-03-03T02:13:08.217Z,150.30
2018-03-03T02:15:01.153Z,141.70
2018-03-03T02:16:01.138Z,142.50
2018-03-03T02:17:54.056Z,145.30
2018-03-03T02:18:54.061Z,138.00
2018-03-03T02:20:46.995Z,143.80
2018-03-03T02:21:46.976Z,140.40
2018-03-03T02:23:39.933Z,138.90
2018-03-03T02:24:39.939Z,138.70
2018-03-03T02:26:32.873Z,141.50
2018-03-03T02:27:32.859Z,145.30
2018-03-03T02:29:25.850Z,142.20
2018-03-03T02:30:25.788Z,138.30
2018-03-03T02:32:18.699Z,141.70
2018-03-03T02:33:18.704Z,140.50
2018-03-03T02:35:12.627Z,141.60
2018-03-03T02:36:12.623Z,138.10
2018-03-03T02:38:05.541Z,137.90
2018-03-03T02:39:05.551Z,138.50
2018-03-03T02:40:58.507Z,138.30
2018-03-03T02:41:58.481Z,140.70
2018-03-03T02:43:51.417Z,136.60
2018-03-03T02:44:51.400Z,133.00
2018-03-03T02:46:44.340Z,134.40
2018-03-03T02:47:44.336Z,138.80
2018-03-03T02:49:37.794Z,138.60
2018-03-03T02:50:37.736Z,137.20
2018-03-03T02:52:30.650Z,140.10
2018-03-03T02:53:30.691Z,136.90
2018-03-03T02:55:23.634Z,147.50
2018-03-03T02:56:23.582Z,137.90
2018-03-03T02:58:16.493Z,134.60
2018-03-03T02:59:16.496Z,147.10
2018-03-03T03:01:09.441Z,144.20
2018-03-03T03:02:09.418Z,148.10
2018-03-03T03:04:02.356Z,141.80
2018-03-03T03:05:02.339Z,141.60
2018-03-03T05:05:51.656Z,102.20
2018-03-03T05:06:51.631Z,135.30
2018-03-03T05:08:44.580Z,174.20
2018-03-03T05:09:44.538Z,165.60
2018-03-03T05:11:37.955Z,162.60
2018-03-03T05:12:37.941Z,158.60
2018-03-03T05:14:30.843Z,159.60
2018-03-03T05:15:30.843Z,161.00
2018-03-03T05:17:23.773Z,149.10
2018-03-03T05:18:23.751Z,156.60
2018-03-03T05:20:16.660Z,152.30
2018-03-03T05:21:16.662Z,152.30
2018-03-03T05:23:09.670Z,149.30
2018-03-03T05:24:09.571Z,150.60
2018-03-03T05:26:02.981Z,149.00
2018-03-03T05:27:02.990Z,143.60
2018-03-03T05:28:55.916Z,148.10
2018-03-03T05:29:55.902Z,144.60
2018-03-03T05:31:48.836Z,145.60
2018-03-03T05:32:48.860Z,142.50
2018-03-03T05:34:42.230Z,144.50
2018-03-03T05:35:42.236Z,139.60
2018-03-03T05:37:35.671Z,138.30
2018-03-03T05:38:35.649Z,142.20
2018-03-03T05:40:28.567Z,136.90
2018-03-03T05:41:28.573Z,143.50
2018-03-03T05:43:22.006Z,136.30
2018-03-03T05:44:21.989Z,139.20
2018-03-03T05:46:14.904Z,135.80
2018-03-03T05:47:14.906Z,143.80
2018-03-03T05:49:07.842Z,141.90
2018-03-03T05:50:07.825Z,142.90
2018-03-03T05:52:00.742Z,144.30
2018-03-03T05:53:00.749Z,139.90
2018-03-03T05:54:53.676Z,135.50
2018-03-03T05:55:53.664Z,137.20
2018-03-03T05:57:48.089Z,137.50
2018-03-03T05:58:48.078Z,145.90
2018-03-03T06:00:41.530Z,142.90
2018-03-03T06:01:41.518Z,143.50
2018-03-03T06:03:34.957Z,145.70
2018-03-03T06:04:34.950Z,140.10
2018-03-03T06:06:27.860Z,139.20
2018-03-03T06:07:27.865Z,146.10
2018-03-03T06:09:20.803Z,144.00
2018-03-03T06:10:20.789Z,144.90
2018-03-03T06:12:13.697Z,144.80
2018-03-03T06:13:13.705Z,145.20
2018-03-03T06:15:06.663Z,144.00
2018-03-03T06:16:06.647Z,144.30
2018-03-03T06:18:00.602Z,144.50
2018-03-03T06:19:00.570Z,146.10
2018-03-03T06:20:53.483Z,149.30
2018-03-03T06:21:53.472Z,147.90
2018-03-03T06:23:46.403Z,140.80
2018-03-03T06:24:46.388Z,143.20
2018-03-03T06:26:39.308Z,140.10
2018-03-03T06:27:39.312Z,140.60
2018-03-03T06:29:32.742Z,141.50
2018-03-03T06:30:32.732Z,137.40
2018-03-03T06:32:25.659Z,137.30
2018-03-03T06:33:25.660Z,138.00
2018-03-03T06:35:18.591Z,141.50
2018-03-03T06:36:18.571Z,138.70
2018-03-03T06:38:11.495Z,138.80
2018-03-03T06:39:11.501Z,141.50
2018-03-03T06:41:04.433Z,141.20
2018-03-03T06:42:04.417Z,139.70
2018-03-03T06:43:57.848Z,137.10
2018-03-03T06:44:57.837Z,134.20
2018-03-03T06:46:50.757Z,134.50
2018-03-03T06:47:50.758Z,142.70
2018-03-03T06:49:43.692Z,135.90
2018-03-03T06:50:43.676Z,139.30
2018-03-03T06:52:37.090Z,136.10
2018-03-03T06:53:37.101Z,134.90
2018-03-03T06:55:30.034Z,138.20
2018-03-03T06:56:30.016Z,137.00
2018-03-03T06:58:22.926Z,135.00
2018-03-03T06:59:22.932Z,132.40
2018-03-03T07:01:15.873Z,133.50
2018-03-03T07:02:15.880Z,129.80
2018-03-03T07:04:08.790Z,129.50
2018-03-03T07:05:08.813Z,129.00
2018-03-03T07:07:02.189Z,130.50
2018-03-03T07:08:02.195Z,131.20
2018-03-03T07:09:55.147Z,127.40
2018-03-03T07:10:55.119Z,130.40
2018-03-03T07:12:48.035Z,131.30
2018-03-03T07:13:48.051Z,130.60
2018-03-03T07:15:40.976Z,132.90
2018-03-03T07:16:40.963Z,131.10
2018-03-03T07:18:33.873Z,133.20
2018-03-03T07:19:33.880Z,126.80
2018-03-03T07:21:26.839Z,131.00
2018-03-03T07:22:26.833Z,129.50
2018-03-03T07:24:19.734Z,133.80
2018-03-03T07:25:19.721Z,127.00
2018-03-03T07:27:12.642Z,127.20
2018-03-03T07:28:12.646Z,127.00
2018-03-03T07:30:05.591Z,126.90
2018-03-03T07:31:05.565Z,128.90
2018-03-03T07:32:58.482Z,130.60
2018-03-03T07:33:58.492Z,126.90
2018-03-03T07:35:51.473Z,130.60
2018-03-03T07:36:51.448Z,126.80
2018-03-03T07:38:44.332Z,124.30
2018-03-03T07:39:44.344Z,126.70
2018-03-03T07:41:37.267Z,126.40
2018-03-03T07:42:37.252Z,118.80
2018-03-03T07:44:30.203Z,133.70
2018-03-03T07:45:30.183Z,124.30
2018-03-03T07:47:23.099Z,118.40
2018-03-03T07:48:23.105Z,125.50
2018-03-03T07:50:16.076Z,128.90
2018-03-03T07:51:16.042Z,121.50
2018-03-03T07:53:09.476Z,142.60
2018-03-03T07:54:09.486Z,120.70
2018-03-03T07:56:02.908Z,122.00
2018-03-03T07:57:02.894Z,116.40
2018-03-03T07:58:55.818Z,118.40
2018-03-03T07:59:55.823Z,125.00
2018-03-03T08:01:48.767Z,123.70
2018-03-03T08:02:48.757Z,122.00
2018-03-03T08:04:41.690Z,119.40
2018-03-03T08:05:41.704Z,119.10
2018-03-03T08:07:34.593Z,122.50
2018-03-03T08:08:34.595Z,118.20
2018-03-03T08:10:27.535Z,118.20
2018-03-03T08:11:27.523Z,120.70
2018-03-03T08:13:20.441Z,112.50
2018-03-03T08:14:20.448Z,113.00
2018-03-03T08:16:13.400Z,117.50
2018-03-03T08:17:13.378Z,113.50
2018-03-03T08:19:06.338Z,112.10
2018-03-03T08:20:06.312Z,107.50
2018-03-03T08:21:59.302Z,109.80
2018-03-03T08:22:59.257Z,117.00
2018-03-03T08:24:52.193Z,112.20
2018-03-03T08:25:52.180Z,112.30
2018-03-03T08:27:46.605Z,108.50
2018-03-03T08:28:46.607Z,107.60
2018-03-03T08:30:39.555Z,100.40
2018-03-03T08:31:39.542Z,111.10
2018-03-03T08:33:32.953Z,107.70
2018-03-03T08:34:32.963Z,105.00
2018-03-03T08:36:25.903Z,105.70
2018-03-03T08:37:25.928Z,102.50
2018-03-03T08:39:18.823Z,102.40
2018-03-03T08:40:18.826Z,107.60
2018-03-03T08:42:11.769Z,102.80
2018-03-03T08:43:11.755Z,101.60
2018-03-03T08:45:04.743Z,104.80
2018-03-03T08:46:04.710Z,98.90
2018-03-03T08:47:57.628Z,103.50
2018-03-03T08:48:57.633Z,102.10
2018-03-03T08:50:50.586Z,99.90
2018-03-03T08:51:50.621Z,96.70
2018-03-03T08:53:43.521Z,101.80
2018-03-03T08:54:43.531Z,101.60
2018-03-03T08:56:36.464Z,99.70
2018-03-03T08:57:36.493Z,104.50
2018-03-03T08:59:29.380Z,102.30
2018-03-03T09:00:29.384Z,105.70
2018-03-03T09:02:22.816Z,105.40
2018-03-03T09:03:22.802Z,102.70
2018-03-03T09:04:22.814Z,99.20
2018-03-03T09:05:22.832Z,101.70
2018-03-03T09:06:22.843Z,106.00
2018-03-03T09:07:22.884Z,103.20
2018-03-03T09:08:22.875Z,97.60
2018-03-03T09:09:22.888Z,96.90
2018-03-03T09:10:22.905Z,97.80
2018-03-03T09:11:22.917Z,98.00
2018-03-03T09:12:22.931Z,98.30
2018-03-03T09:13:22.944Z,97.90
2018-03-03T09:14:22.956Z,94.30
2018-03-03T09:15:22.978Z,98.20
2018-03-03T09:16:22.988Z,97.20
2018-03-03T09:17:23.005Z,94.20
2018-03-03T09:18:23.016Z,98.10
2018-03-03T09:19:23.034Z,101.00
2018-03-03T09:20:23.068Z,97.10
2018-03-03T09:21:23.082Z,95.70
2018-03-03T09:22:23.074Z,98.50
2018-03-03T09:23:23.091Z,94.80
2018-03-03T09:24:23.107Z,91.60
2018-03-03T09:25:23.116Z,98.80
2018-03-03T09:26:23.136Z,99.90
2018-03-03T09:27:23.146Z,98.00
2018-03-03T09:28:23.218Z,96.90
2018-03-03T09:29:23.205Z,98.20
2018-03-03T09:30:23.189Z,95.70
2018-03-03T09:31:23.205Z,99.60
2018-03-03T09:32:23.219Z,93.20
2018-03-03T09:33:23.240Z,96.10
2018-03-03T09:34:23.251Z,99.00
2018-03-03T09:35:23.270Z,95.50
2018-03-03T09:36:23.287Z,98.00
2018-03-03T09:37:23.294Z,97.70
2018-03-03T09:38:23.316Z,99.50
2018-03-03T09:39:23.352Z,94.20
2018-03-03T09:40:23.340Z,94.80
2018-03-03T09:41:23.353Z,99.60
2018-03-03T09:42:23.370Z,97.90
2018-03-03T09:43:23.382Z,101.60
2018-03-03T09:44:23.434Z,92.80
2018-03-03T09:45:23.424Z,94.60
2018-03-03T09:46:23.429Z,93.00
2018-03-03T09:47:23.449Z,95.70
2018-03-03T09:48:23.460Z,93.90
2018-03-03T09:49:23.487Z,92.60
2018-03-03T09:50:23.488Z,94.20
2018-03-03T09:51:23.515Z,95.90
2018-03-03T09:52:23.517Z,92.30
2018-03-03T09:53:23.535Z,94.40
2018-03-03T09:54:23.554Z,97.70
2018-03-03T09:55:23.563Z,95.30
2018-03-03T09:56:23.580Z,94.10
2018-03-03T09:57:23.609Z,95.00
2018-03-03T09:58:23.608Z,100.40
2018-03-03T09:59:23.630Z,97.10
2018-03-03T10:00:23.638Z,97.70
2018-03-03T10:01:23.662Z,94.90
2018-03-03T10:02:23.668Z,96.50
2018-03-03T10:03:23.740Z,94.80
2018-03-03T10:04:23.702Z,99.50
2018-03-03T10:05:23.719Z,94.20
2018-03-03T10:06:23.738Z,98.40
2018-03-03T10:07:23.745Z,97.60
2018-03-03T10:08:23.763Z,92.80
2018-03-03T10:09:23.781Z,94.40
2018-03-03T10:10:23.791Z,93.50
2018-03-03T10:11:23.851Z,93.40
2018-03-03T10:12:23.828Z,94.50
2018-03-03T10:13:23.840Z,93.00
2018-03-03T10:14:23.855Z,94.30
2018-03-03T10:15:23.869Z,93.10
2018-03-03T10:16:23.890Z,95.60
2018-03-03T10:17:23.903Z,97.50
2018-03-03T10:18:23.924Z,97.70
2018-03-03T10:19:23.935Z,95.70
2018-03-03T10:20:23.951Z,96.80
2018-03-03T10:21:24.000Z,96.00
2018-03-03T10:22:23.976Z,94.50
2018-03-03T10:23:23.999Z,96.10
2018-03-03T10:24:24.011Z,92.70
2018-03-03T10:25:24.028Z,96.70
2018-03-03T10:26:24.107Z,100.60
2018-03-03T10:27:24.060Z,102.40
2018-03-03T10:28:24.075Z,97.70
2018-03-03T10:29:24.086Z,97.70
2018-03-03T10:30:24.103Z,95.50
2018-03-03T10:31:24.124Z,98.80
2018-03-03T10:32:24.233Z,99.40
2018-03-03T10:33:24.156Z,99.80
2018-03-03T10:34:24.169Z,101.60
2018-03-03T10:35:24.187Z,96.60
2018-03-03T10:36:24.201Z,99.20
2018-03-03T10:37:24.223Z,97.00
2018-03-03T10:38:24.281Z,96.40
2018-03-03T10:39:24.252Z,93.70
2018-03-03T10:40:24.261Z,90.50
2018-03-03T10:41:24.282Z,95.50
2018-03-03T10:42:24.290Z,98.70
2018-03-03T10:43:24.310Z,101.50
2018-03-03T10:44:24.326Z,100.00
2018-03-03T10:45:24.388Z,96.60
2018-03-03T10:46:24.357Z,100.50
2018-03-03T10:47:24.372Z,99.10
2018-03-03T10:48:24.387Z,94.30
2018-03-03T10:49:24.407Z,97.00
2018-03-03T10:50:24.420Z,101.00
2018-03-03T10:51:24.435Z,93.60
2018-03-03T10:52:24.453Z,95.30
2018-03-03T10:53:24.490Z,95.30
2018-03-03T10:54:24.486Z,94.60
2018-03-03T10:55:24.499Z,95.40
2018-03-03T10:56:24.516Z,98.40
2018-03-03T10:57:24.579Z,95.20
2018-03-03T10:58:24.544Z,92.50
2018-03-03T10:59:24.560Z,93.90
2018-03-03T11:00:24.577Z,95.10
2018-03-03T11:01:24.595Z,97.10
2018-03-03T11:02:24.608Z,93.80
2018-03-03T11:03:24.623Z,92.70
2018-03-03T11:04:24.645Z,92.40
2018-03-03T11:05:24.680Z,91.00
2018-03-03T11:06:24.673Z,96.00
2018-03-03T11:07:24.688Z,89.90
2018-03-03T11:08:24.704Z,92.30
2018-03-03T11:09:24.723Z,94.50
2018-03-03T11:10:24.758Z,93.00
2018-03-03T11:11:24.762Z,92.30
2018-03-03T11:12:24.770Z,93.90
2018-03-03T11:13:24.783Z,94.70
2018-03-03T11:14:24.806Z,92.00
2018-03-03T11:15:24.816Z,92.50
2018-03-03T11:16:24.832Z,97.60
2018-03-03T11:17:24.844Z,91.20
2018-03-03T11:18:24.858Z,93.70
2018-03-03T11:19:24.882Z,93.50
2018-03-03T11:20:24.895Z,95.70
2018-03-03T11:21:24.954Z,95.20
2018-03-03T11:22:24.941Z,94.30
2018-03-03T11:23:24.947Z,90.70
2018-03-03T11:24:24.973Z,93.10
2018-03-03T11:25:24.973Z,101.30
2018-03-03T11:26:24.993Z,89.30
2018-03-03T11:27:25.014Z,95.40
2018-03-03T11:28:25.035Z,96.70
2018-03-03T11:29:25.037Z,96.30
2018-03-03T11:30:25.054Z,94.90
2018-03-03T11:31:25.068Z,95.10
2018-03-03T11:32:25.082Z,92.40
2018-03-03T11:33:25.131Z,95.00
2018-03-03T11:34:25.121Z,93.60
2018-03-03T11:35:25.134Z,91.00
2018-03-03T11:36:25.156Z,91.60
2018-03-03T11:37:25.169Z,96.70
2018-03-03T11:38:25.181Z,94.20
2018-03-03T11:39:25.214Z,92.30
2018-03-03T11:40:25.260Z,95.80
2018-03-03T11:41:25.240Z,92.60
2018-03-03T11:42:25.241Z,96.00
2018-03-03T11:43:25.307Z,89.80
2018-03-03T11:44:25.274Z,93.10
2018-03-03T11:45:25.291Z,97.30
2018-03-03T11:46:25.310Z,95.70
2018-03-03T11:47:25.354Z,95.80
2018-03-03T11:48:25.355Z,104.20
2018-03-03T11:49:25.377Z,95.00
2018-03-03T11:50:25.375Z,95.60
2018-03-03T11:51:25.386Z,92.80
2018-03-03T11:52:25.402Z,103.10
2018-03-03T11:53:25.421Z,101.80
2018-03-03T11:54:25.491Z,102.90
2018-03-03T11:55:25.448Z,99.80
2018-03-03T11:56:25.468Z,101.80
2018-03-03T11:57:25.484Z,101.40
2018-03-03T11:58:25.496Z,102.40
2018-03-03T11:59:25.510Z,100.30
2018-03-03T12:00:25.529Z,98.80
2018-03-03T12:01:25.549Z,101.10
2018-03-03T12:02:25.570Z,100.60
2018-03-03T12:03:25.577Z,103.30
2018-03-03T12:04:25.625Z,100.00
2018-03-03T12:05:25.609Z,98.90
2018-03-03T12:06:25.624Z,104.70
2018-03-03T12:07:25.643Z,97.90
2018-03-03T12:08:25.656Z,97.90
2018-03-03T12:09:25.752Z,103.10
2018-03-03T12:10:25.686Z,98.70
2018-03-03T12:11:25.730Z,97.60
2018-03-03T12:12:25.715Z,100.20
2018-03-03T12:13:25.737Z,102.80
2018-03-03T12:14:25.756Z,98.00
2018-03-03T12:15:25.767Z,99.80
2018-03-03T12:16:25.780Z,95.90
2018-03-03T12:17:25.797Z,94.00
2018-03-03T12:18:25.810Z,93.40
2018-03-03T12:19:25.826Z,96.40
2018-03-03T12:20:25.844Z,96.90
2018-03-03T12:21:25.868Z,98.10
2018-03-03T12:22:25.873Z,92.30
2018-03-03T12:23:25.892Z,95.80
2018-03-03T12:24:25.904Z,90.90
2018-03-03T12:25:25.922Z,89.80
2018-03-03T12:26:25.939Z,92.50
2018-03-03T12:27:25.951Z,90.30
2018-03-03T12:28:25.968Z,92.70
2018-03-03T12:29:25.991Z,89.30
2018-03-03T12:30:25.995Z,95.20
2018-03-03T12:31:26.012Z,96.50
2018-03-03T12:32:26.028Z,93.10
2018-03-03T12:33:26.043Z,91.90
2018-03-03T12:34:26.103Z,92.10
2018-03-03T12:35:26.092Z,92.40
2018-03-03T12:36:26.116Z,86.40
2018-03-03T12:37:26.103Z,92.30
2018-03-03T12:38:26.119Z,89.30
2018-03-03T12:39:26.136Z,90.70
2018-03-03T12:40:26.151Z,89.10
2018-03-03T12:41:26.177Z,87.00
2018-03-03T12:42:26.180Z,91.00
2018-03-03T12:43:26.196Z,92.60
2018-03-03T12:44:26.212Z,92.10
2018-03-03T12:45:26.227Z,87.00
2018-03-03T12:46:26.241Z,91.30
2018-03-03T12:47:26.311Z,88.70
2018-03-03T12:48:26.272Z,87.60
2018-03-03T12:49:26.297Z,86.00
2018-03-03T12:50:26.307Z,102.00
2018-03-03T12:51:26.316Z,112.30
2018-03-03T12:52:26.332Z,99.70
2018-03-03T12:53:26.347Z,112.40
2018-03-03T12:54:26.378Z,109.90
2018-03-03T12:55:26.378Z,88.80
2018-03-03T12:56:26.394Z,88.10
2018-03-03T12:57:26.408Z,90.90
2018-03-03T12:58:26.445Z,91.40
2018-03-03T12:59:26.440Z,89.30
2018-03-03T13:00:26.466Z,88.80
2018-03-03T13:01:26.475Z,87.50
2018-03-03T13:02:26.487Z,89.10
2018-03-03T13:03:26.498Z,90.40
2018-03-03T13:04:26.515Z,96.10
2018-03-03T13:05:26.533Z,91.60
2018-03-03T13:06:26.575Z,90.10
2018-03-03T13:07:26.563Z,96.40
2018-03-03T13:08:26.576Z,89.70
2018-03-03T13:09:26.594Z,85.90
2018-03-03T13:10:26.616Z,89.90
2018-03-03T13:11:26.633Z,90.00
2018-03-03T13:12:26.637Z,93.10
2018-03-03T13:13:26.654Z,92.00
2018-03-03T13:14:26.673Z,93.70
2018-03-03T13:15:26.681Z,94.50
2018-03-03T13:16:26.702Z,89.80
2018-03-03T13:17:26.719Z,88.20
2018-03-03T13:18:26.726Z,91.40
2018-03-03T13:19:26.786Z,88.00
2018-03-03T13:20:26.759Z,91.20
2018-03-03T13:21:26.771Z,90.80
2018-03-03T13:22:26.788Z,91.20
2018-03-03T13:23:26.805Z,92.20
2018-03-03T13:24:26.826Z,93.20
2018-03-03T13:25:26.842Z,89.00
2018-03-03T13:26:26.903Z,88.90
2018-03-03T13:27:26.876Z,90.20
2018-03-03T13:28:26.878Z,95.10
2018-03-03T13:29:26.891Z,91.60
2018-03-03T13:30:26.908Z,91.70
2018-03-03T13:31:26.924Z,89.20
2018-03-03T13:32:26.939Z,89.60
2018-03-03T13:33:26.954Z,89.80
2018-03-03T13:34:26.972Z,93.50
2018-03-03T13:35:26.982Z,93.90
2018-03-03T13:36:26.994Z,95.70
2018-03-03T13:37:27.021Z,94.50
2018-03-03T13:38:27.035Z,90.10
2018-03-03T13:39:27.107Z,90.70
2018-03-03T13:40:27.055Z,92.40
2018-03-03T13:41:27.072Z,86.70
2018-03-03T13:42:27.084Z,89.40
2018-03-03T13:43:27.103Z,88.30
2018-03-03T13:44:27.117Z,93.70
2018-03-03T13:45:27.163Z,97.20
2018-03-03T13:46:27.170Z,92.20
2018-03-03T13:47:27.163Z,92.00
2018-03-03T13:48:27.181Z,89.10
2018-03-03T13:49:27.191Z,85.80
2018-03-03T13:50:27.204Z,88.30
2018-03-03T13:51:27.223Z,86.50
2018-03-03T13:52:27.237Z,85.10
2018-03-03T13:53:27.348Z,92.20
2018-03-03T13:54:27.265Z,87.90
2018-03-03T13:55:27.284Z,86.80
2018-03-03T13:56:27.294Z,90.40
2018-03-03T13:57:27.317Z,92.40
2018-03-03T13:58:27.327Z,88.50
2018-03-03T13:59:27.404Z,89.30
2018-03-03T14:00:27.362Z,90.10
2018-03-03T14:01:27.420Z,91.70
2018-03-03T14:02:27.385Z,94.50
2018-03-03T14:03:27.406Z,92.10
2018-03-03T14:04:27.433Z,88.50
2018-03-03T14:05:27.428Z,93.80
2018-03-03T14:06:27.455Z,94.80
2018-03-03T14:07:27.465Z,91.70
2018-03-03T14:08:27.479Z,92.00
2018-03-03T14:09:27.503Z,94.50
2018-03-03T14:10:27.508Z,97.90
2018-03-03T14:11:27.530Z,89.90
2018-03-03T14:12:27.556Z,92.40
2018-03-03T14:13:27.552Z,95.80
2018-03-03T14:14:27.610Z,95.70
2018-03-03T14:15:27.581Z,95.20
2018-03-03T14:16:27.604Z,97.10
2018-03-03T14:17:27.644Z,97.10
2018-03-03T14:18:27.625Z,93.00
2018-03-03T14:19:27.665Z,93.90
2018-03-03T14:20:27.667Z,96.20
2018-03-03T14:21:27.675Z,91.00
2018-03-03T14:22:27.689Z,95.40
2018-03-03T14:23:27.705Z,94.70
2018-03-03T14:24:27.721Z,96.00
2018-03-03T14:25:27.770Z,95.60
2018-03-03T14:26:27.748Z,92.30
2018-03-03T14:27:27.783Z,90.60
2018-03-03T14:28:27.782Z,92.70
2018-03-03T14:29:27.796Z,93.20
2018-03-03T14:30:27.811Z,93.80
2018-03-03T14:31:27.832Z,91.50
2018-03-03T14:32:27.853Z,94.10
2018-03-03T14:33:27.911Z,91.00
2018-03-03T14:34:27.875Z,96.90
2018-03-03T14:35:27.892Z,92.00
2018-03-03T14:36:27.903Z,87.80
2018-03-03T14:37:27.921Z,95.90
2018-03-03T14:38:27.936Z,93.40
2018-03-03T14:39:27.991Z,88.90
2018-03-03T14:40:27.969Z,92.60
2018-03-03T14:41:27.987Z,91.50
2018-03-03T14:42:28.002Z,92.00
2018-03-03T14:43:28.015Z,91.70
2018-03-03T14:44:28.027Z,99.10
2018-03-03T14:45:28.047Z,105.70
2018-03-03T14:46:28.072Z,93.90
2018-03-03T14:47:28.079Z,91.20
2018-03-03T14:48:28.095Z,93.80
2018-03-03T14:49:28.106Z,93.60
2018-03-03T14:50:28.133Z,93.50
2018-03-03T14:51:28.141Z,95.40
2018-03-03T14:52:28.152Z,94.50
2018-03-03T14:53:28.173Z,93.40
2018-03-03T14:54:28.200Z,89.70
2018-03-03T14:55:28.200Z,94.10
2018-03-03T14:56:28.222Z,92.80
2018-03-03T14:57:28.232Z,92.10
2018-03-03T14:58:28.249Z,92.50
2018-03-03T14:59:28.310Z,98.80
2018-03-03T15:00:28.280Z,90.30
2018-03-03T15:01:28.299Z,92.10
2018-03-03T15:02:28.313Z,91.60
2018-03-03T15:03:28.326Z,95.80
2018-03-03T15:04:28.344Z,90.60
2018-03-03T15:05:28.400Z,89.80
2018-03-03T15:06:28.373Z,90.60
2018-03-03T15:07:28.390Z,95.90
2018-03-03T15:08:28.404Z,95.40
2018-03-03T15:09:28.420Z,91.60
2018-03-03T15:10:28.436Z,92.90
2018-03-03T15:11:28.456Z,92.40
2018-03-03T15:12:28.482Z,92.40
2018-03-03T15:13:28.550Z,92.70
2018-03-03T15:14:28.496Z,94.10
2018-03-03T15:15:28.566Z,94.30
2018-03-03T15:16:28.529Z,91.20
2018-03-03T15:17:28.547Z,91.80
2018-03-03T15:18:28.556Z,91.00
2018-03-03T15:19:28.571Z,90.70
2018-03-03T15:20:28.592Z,93.00
2018-03-03T15:21:28.606Z,93.80
2018-03-03T15:22:28.637Z,89.80
2018-03-03T15:23:28.635Z,92.10
2018-03-03T15:24:28.652Z,92.10
2018-03-03T15:25:28.666Z,91.70
2018-03-03T15:26:28.678Z,94.90
2018-03-03T15:27:28.717Z,93.20
2018-03-03T15:28:28.751Z,90.90
2018-03-03T15:29:28.725Z,91.70
2018-03-03T15:30:28.742Z,92.80
2018-03-03T15:31:28.757Z,95.20
2018-03-03T15:32:28.775Z,93.40
2018-03-03T15:33:28.835Z,93.30
2018-03-03T15:34:28.805Z,91.50
2018-03-03T15:35:28.819Z,91.40
2018-03-03T15:36:28.836Z,94.00
2018-03-03T15:37:28.851Z,93.70
2018-03-03T15:38:28.866Z,97.40
2018-03-03T15:39:28.891Z,96.40
2018-03-03T15:40:28.949Z,90.30
2018-03-03T15:41:28.911Z,96.40
2018-03-03T15:42:28.958Z,97.10
2018-03-03T15:43:28.942Z,92.70
2018-03-03T15:44:28.957Z,93.40
2018-03-03T15:45:28.971Z,98.90
2018-03-03T15:46:28.989Z,93.40
2018-03-03T15:47:29.002Z,90.10
2018-03-03T15:48:29.018Z,96.40
2018-03-03T15:49:29.032Z,89.50
2018-03-03T15:50:29.042Z,89.50
2018-03-03T15:51:29.063Z,93.10
2018-03-03T15:52:29.080Z,95.10
2018-03-03T15:53:29.091Z,93.50
2018-03-03T15:54:29.105Z,93.50
2018-03-03T15:55:29.139Z,92.00
2018-03-03T15:56:29.147Z,92.30
2018-03-03T15:57:29.150Z,90.80
2018-03-03T15:58:29.166Z,92.40
2018-03-03T15:59:29.181Z,90.20
2018-03-03T16:00:29.206Z,89.60
2018-03-03T16:01:29.215Z,88.90
2018-03-03T16:02:29.234Z,92.50
2018-03-03T16:03:29.243Z,91.80
2018-03-03T16:04:29.290Z,89.90
2018-03-03T16:05:29.272Z,96.40
2018-03-03T16:06:29.288Z,93.90
2018-03-03T16:07:29.324Z,95.00
2018-03-03T16:08:29.316Z,92.20
2018-03-03T16:09:29.360Z,88.90
2018-03-03T16:10:29.350Z,91.40
2018-03-03T16:11:29.362Z,90.00
2018-03-03T16:12:29.379Z,93.90
2018-03-03T16:13:29.388Z,94.70
2018-03-03T16:14:29.423Z,90.60
2018-03-03T16:15:29.417Z,89.80
2018-03-03T16:16:29.434Z,92.90
2018-03-03T16:17:29.455Z,88.00
2018-03-03T16:18:29.472Z,90.40
2018-03-03T16:19:29.475Z,89.30
2018-03-03T16:20:29.496Z,90.70
2018-03-03T16:21:29.507Z,93.20
2018-03-03T16:22:29.562Z,93.00
2018-03-03T16:23:29.541Z,92.20
2018-03-03T16:24:29.554Z,89.60
2018-03-03T16:25:29.576Z,94.70
2018-03-03T16:26:29.584Z,94.60
2018-03-03T16:27:29.601Z,91.70
2018-03-03T16:28:29.608Z,90.00
2018-03-03T16:29:29.624Z,91.50
2018-03-03T16:30:29.638Z,91.80
2018-03-03T16:31:29.653Z,92.40
2018-03-03T16:32:29.668Z,94.40
2018-03-03T16:33:29.697Z,90.30
2018-03-03T16:34:29.696Z,93.00
2018-03-03T16:35:29.731Z,93.10
2018-03-03T16:36:29.727Z,92.40
2018-03-03T16:37:29.741Z,94.60
2018-03-03T16:38:29.755Z,96.60
2018-03-03T16:39:29.808Z,93.60
2018-03-03T16:40:29.791Z,91.90
2018-03-03T16:41:29.797Z,94.50
2018-03-03T16:42:29.810Z,93.60
2018-03-03T16:43:29.834Z,97.40
2018-03-03T16:44:29.867Z,95.80
2018-03-03T16:45:29.854Z,94.50
2018-03-03T16:46:29.877Z,92.70
2018-03-03T16:47:29.889Z,94.30
2018-03-03T16:48:29.899Z,91.70
2018-03-03T16:49:29.951Z,93.80
2018-03-03T16:50:29.925Z,92.40
2018-03-03T16:51:29.936Z,92.30